sensor_id;sensor_type;location;lat;lon;timestamp;temperature;humidity
24636;DHT22;12772;49.794;10.024;2023-06-01T00:00:51;19.90;30.70
24636;DHT22;12772;49.794;10.024;2023-06-01T00:04:56;19.70;30.90
24636;DHT22;12772;49.794;10.024;2023-06-01T00:08:58;19.70;31.10
24636;DHT22;12772;49.794;10.024;2023-06-01T00:13:01;19.70;31.20
24636;DHT22;12772;49.794;10.024;2023-06-01T00:17:03;19.70;31.40
24636;DHT22;12772;49.794;10.024;2023-06-01T00:21:06;19.60;31.70
24636;DHT22;12772;49.794;10.024;2023-06-01T00:25:09;19.50;31.80
24636;DHT22;12772;49.794;10.024;2023-06-01T00:29:11;19.40;31.60
24636;DHT22;12772;49.794;10.024;2023-06-01T00:33:13;19.30;31.80
24636;DHT22;12772;49.794;10.024;2023-06-01T00:37:15;19.30;32.00
24636;DHT22;12772;49.794;10.024;2023-06-01T00:41:17;19.30;31.90
24636;DHT22;12772;49.794;10.024;2023-06-01T00:45:19;19.20;32.10
24636;DHT22;12772;49.794;10.024;2023-06-01T00:49:22;19.20;32.10
24636;DHT22;12772;49.794;10.024;2023-06-01T00:53:24;19.20;32.20
24636;DHT22;12772;49.794;10.024;2023-06-01T00:57:27;19.10;32.10
24636;DHT22;12772;49.794;10.024;2023-06-01T01:01:30;19.10;32.20
24636;DHT22;12772;49.794;10.024;2023-06-01T01:05:33;19.00;32.50
24636;DHT22;12772;49.794;10.024;2023-06-01T01:09:40;19.00;32.60
24636;DHT22;12772;49.794;10.024;2023-06-01T01:14:01;19.00;32.90
24636;DHT22;12772;49.794;10.024;2023-06-01T01:18:11;19.00;32.90
24636;DHT22;12772;49.794;10.024;2023-06-01T01:26:46;18.80;32.70
24636;DHT22;12772;49.794;10.024;2023-06-01T01:30:51;18.80;32.70
24636;DHT22;12772;49.794;10.024;2023-06-01T01:34:55;18.70;33.00
24636;DHT22;12772;49.794;10.024;2023-06-01T01:38:58;18.70;33.10
24636;DHT22;12772;49.794;10.024;2023-06-01T01:43:01;18.70;33.00
24636;DHT22;12772;49.794;10.024;2023-06-01T01:51:54;18.60;33.00
24636;DHT22;12772;49.794;10.024;2023-06-01T01:55:58;18.60;33.20
24636;DHT22;12772;49.794;10.024;2023-06-01T02:00:03;18.50;33.20
24636;DHT22;12772;49.794;10.024;2023-06-01T02:04:05;18.50;33.40
24636;DHT22;12772;49.794;10.024;2023-06-01T02:08:08;18.50;33.50
24636;DHT22;12772;49.794;10.024;2023-06-01T02:12:10;18.50;33.60
24636;DHT22;12772;49.794;10.024;2023-06-01T02:16:12;18.40;33.60
24636;DHT22;12772;49.794;10.024;2023-06-01T02:20:17;18.30;33.70
24636;DHT22;12772;49.794;10.024;2023-06-01T02:24:19;18.20;33.80
24636;DHT22;12772;49.794;10.024;2023-06-01T02:28:21;18.20;34.10
24636;DHT22;12772;49.794;10.024;2023-06-01T02:32:23;18.20;34.20
24636;DHT22;12772;49.794;10.024;2023-06-01T02:36:27;18.20;34.10
24636;DHT22;12772;49.794;10.024;2023-06-01T02:40:29;18.10;34.20
24636;DHT22;12772;49.794;10.024;2023-06-01T02:44:31;18.10;34.40
24636;DHT22;12772;49.794;10.024;2023-06-01T02:48:33;18.00;34.50
24636;DHT22;12772;49.794;10.024;2023-06-01T02:52:35;18.00;34.60
24636;DHT22;12772;49.794;10.024;2023-06-01T02:56:37;17.90;34.50
24636;DHT22;12772;49.794;10.024;2023-06-01T03:00:39;17.90;34.60
24636;DHT22;12772;49.794;10.024;2023-06-01T03:04:42;17.80;34.50
24636;DHT22;12772;49.794;10.024;2023-06-01T03:08:46;17.80;34.70
24636;DHT22;12772;49.794;10.024;2023-06-01T03:12:48;17.80;34.90
24636;DHT22;12772;49.794;10.024;2023-06-01T03:16:50;17.70;34.90
24636;DHT22;12772;49.794;10.024;2023-06-01T03:20:52;17.70;35.00
24636;DHT22;12772;49.794;10.024;2023-06-01T03:24:54;17.60;34.80
24636;DHT22;12772;49.794;10.024;2023-06-01T03:28:56;17.60;35.00
24636;DHT22;12772;49.794;10.024;2023-06-01T03:32:58;17.60;35.00
24636;DHT22;12772;49.794;10.024;2023-06-01T03:37:00;17.60;35.00
24636;DHT22;12772;49.794;10.024;2023-06-01T03:41:04;17.60;35.00
24636;DHT22;12772;49.794;10.024;2023-06-01T03:45:07;17.50;35.00
24636;DHT22;12772;49.794;10.024;2023-06-01T03:49:09;17.50;35.00
24636;DHT22;12772;49.794;10.024;2023-06-01T03:53:12;17.50;35.10
24636;DHT22;12772;49.794;10.024;2023-06-01T03:57:14;17.50;35.30
24636;DHT22;12772;49.794;10.024;2023-06-01T04:01:16;17.40;35.30
24636;DHT22;12772;49.794;10.024;2023-06-01T04:05:21;17.40;35.40
24636;DHT22;12772;49.794;10.024;2023-06-01T04:09:23;17.40;35.50
24636;DHT22;12772;49.794;10.024;2023-06-01T04:13:25;17.30;35.60
24636;DHT22;12772;49.794;10.024;2023-06-01T04:17:27;17.30;35.80
24636;DHT22;12772;49.794;10.024;2023-06-01T04:21:29;17.30;35.80
24636;DHT22;12772;49.794;10.024;2023-06-01T04:25:32;17.20;35.70
24636;DHT22;12772;49.794;10.024;2023-06-01T04:29:35;17.20;36.10
24636;DHT22;12772;49.794;10.024;2023-06-01T04:33:40;17.20;37.00
24636;DHT22;12772;49.794;10.024;2023-06-01T04:37:42;17.30;36.30
24636;DHT22;12772;49.794;10.024;2023-06-01T04:41:44;17.30;36.20
24636;DHT22;12772;49.794;10.024;2023-06-01T04:45:47;17.30;36.20
24636;DHT22;12772;49.794;10.024;2023-06-01T04:49:50;17.30;36.30
24636;DHT22;12772;49.794;10.024;2023-06-01T04:53:53;17.40;37.10
24636;DHT22;12772;49.794;10.024;2023-06-01T04:57:55;17.40;36.40
24636;DHT22;12772;49.794;10.024;2023-06-01T05:01:57;17.50;36.60
24636;DHT22;12772;49.794;10.024;2023-06-01T05:05:59;17.60;36.60
24636;DHT22;12772;49.794;10.024;2023-06-01T05:10:02;17.70;36.70
24636;DHT22;12772;49.794;10.024;2023-06-01T05:14:06;17.80;36.60
24636;DHT22;12772;49.794;10.024;2023-06-01T05:18:08;17.90;36.60
24636;DHT22;12772;49.794;10.024;2023-06-01T05:22:11;18.10;36.70
24636;DHT22;12772;49.794;10.024;2023-06-01T05:26:13;18.20;36.60
24636;DHT22;12772;49.794;10.024;2023-06-01T05:30:15;18.30;36.30
24636;DHT22;12772;49.794;10.024;2023-06-01T05:34:17;18.40;36.20
24636;DHT22;12772;49.794;10.024;2023-06-01T05:38:19;18.50;36.10
24636;DHT22;12772;49.794;10.024;2023-06-01T05:42:21;18.50;36.60
24636;DHT22;12772;49.794;10.024;2023-06-01T05:46:23;18.60;36.10
24636;DHT22;12772;49.794;10.024;2023-06-01T05:50:26;18.70;35.90
24636;DHT22;12772;49.794;10.024;2023-06-01T05:54:28;18.80;36.00
24636;DHT22;12772;49.794;10.024;2023-06-01T05:58:30;19.00;35.80
24636;DHT22;12772;49.794;10.024;2023-06-01T06:02:32;19.10;35.40
24636;DHT22;12772;49.794;10.024;2023-06-01T06:06:34;19.20;35.10
24636;DHT22;12772;49.794;10.024;2023-06-01T06:10:36;19.40;35.10
24636;DHT22;12772;49.794;10.024;2023-06-01T06:14:38;19.50;34.60
24636;DHT22;12772;49.794;10.024;2023-06-01T06:18:41;19.70;34.30
24636;DHT22;12772;49.794;10.024;2023-06-01T06:22:43;19.80;34.60
24636;DHT22;12772;49.794;10.024;2023-06-01T06:26:45;19.90;34.00
24636;DHT22;12772;49.794;10.024;2023-06-01T06:30:48;20.00;34.10
24636;DHT22;12772;49.794;10.024;2023-06-01T06:34:50;20.20;34.30
24636;DHT22;12772;49.794;10.024;2023-06-01T06:38:52;20.40;34.50
24636;DHT22;12772;49.794;10.024;2023-06-01T06:42:54;20.50;34.70
24636;DHT22;12772;49.794;10.024;2023-06-01T06:46:58;20.60;34.70
24636;DHT22;12772;49.794;10.024;2023-06-01T06:51:01;20.70;34.90
24636;DHT22;12772;49.794;10.024;2023-06-01T06:55:04;20.80;34.60
24636;DHT22;12772;49.794;10.024;2023-06-01T06:59:06;20.90;34.40
24636;DHT22;12772;49.794;10.024;2023-06-01T07:03:08;21.00;34.10
24636;DHT22;12772;49.794;10.024;2023-06-01T07:07:11;21.30;34.70
24636;DHT22;12772;49.794;10.024;2023-06-01T07:11:13;21.40;33.60
24636;DHT22;12772;49.794;10.024;2023-06-01T07:15:15;21.50;33.30
24636;DHT22;12772;49.794;10.024;2023-06-01T07:19:17;21.60;33.30
24636;DHT22;12772;49.794;10.024;2023-06-01T07:23:19;21.80;32.90
24636;DHT22;12772;49.794;10.024;2023-06-01T07:27:21;21.90;31.90
24636;DHT22;12772;49.794;10.024;2023-06-01T07:31:24;22.10;32.00
24636;DHT22;12772;49.794;10.024;2023-06-01T07:35:26;22.20;31.80
24636;DHT22;12772;49.794;10.024;2023-06-01T07:39:28;22.40;32.00
24636;DHT22;12772;49.794;10.024;2023-06-01T07:43:30;22.50;32.10
24636;DHT22;12772;49.794;10.024;2023-06-01T07:47:32;22.60;31.50
24636;DHT22;12772;49.794;10.024;2023-06-01T07:51:34;22.80;31.50
24636;DHT22;12772;49.794;10.024;2023-06-01T07:55:36;23.00;31.20
24636;DHT22;12772;49.794;10.024;2023-06-01T07:59:38;23.20;30.40
24636;DHT22;12772;49.794;10.024;2023-06-01T08:03:43;23.20;30.40
24636;DHT22;12772;49.794;10.024;2023-06-01T08:07:46;23.40;30.00
24636;DHT22;12772;49.794;10.024;2023-06-01T08:11:48;23.50;30.00
24636;DHT22;12772;49.794;10.024;2023-06-01T08:15:50;23.70;30.00
24636;DHT22;12772;49.794;10.024;2023-06-01T08:19:53;23.80;29.20
24636;DHT22;12772;49.794;10.024;2023-06-01T08:23:56;24.00;28.80
24636;DHT22;12772;49.794;10.024;2023-06-01T08:27:58;24.10;28.30
24636;DHT22;12772;49.794;10.024;2023-06-01T08:32:00;24.30;28.10
24636;DHT22;12772;49.794;10.024;2023-06-01T08:36:02;24.40;27.50
24636;DHT22;12772;49.794;10.024;2023-06-01T08:40:04;24.50;27.80
24636;DHT22;12772;49.794;10.024;2023-06-01T08:44:10;24.60;27.60
24636;DHT22;12772;49.794;10.024;2023-06-01T08:48:16;24.80;27.40
24636;DHT22;12772;49.794;10.024;2023-06-01T08:52:20;24.90;27.30
24636;DHT22;12772;49.794;10.024;2023-06-01T08:56:23;25.10;27.00
24636;DHT22;12772;49.794;10.024;2023-06-01T09:00:27;25.30;26.80
24636;DHT22;12772;49.794;10.024;2023-06-01T09:04:29;25.30;26.40
24636;DHT22;12772;49.794;10.024;2023-06-01T09:08:32;25.40;26.50
24636;DHT22;12772;49.794;10.024;2023-06-01T09:12:34;25.50;26.50
24636;DHT22;12772;49.794;10.024;2023-06-01T09:16:36;25.50;25.70
24636;DHT22;12772;49.794;10.024;2023-06-01T09:20:38;25.60;25.10
24636;DHT22;12772;49.794;10.024;2023-06-01T09:24:55;25.70;24.50
24636;DHT22;12772;49.794;10.024;2023-06-01T09:28:59;25.70;24.00
24636;DHT22;12772;49.794;10.024;2023-06-01T09:33:15;25.90;24.30
24636;DHT22;12772;49.794;10.024;2023-06-01T09:37:17;26.10;24.20
24636;DHT22;12772;49.794;10.024;2023-06-01T09:41:19;26.20;23.60
24636;DHT22;12772;49.794;10.024;2023-06-01T09:45:23;26.30;22.60
24636;DHT22;12772;49.794;10.024;2023-06-01T09:49:36;26.40;23.10
24636;DHT22;12772;49.794;10.024;2023-06-01T09:53:40;26.50;23.10
24636;DHT22;12772;49.794;10.024;2023-06-01T09:57:42;26.70;23.50
24636;DHT22;12772;49.794;10.024;2023-06-01T10:01:56;26.80;21.50
24636;DHT22;12772;49.794;10.024;2023-06-01T10:05:59;26.90;22.30
24636;DHT22;12772;49.794;10.024;2023-06-01T10:10:02;27.00;21.60
24636;DHT22;12772;49.794;10.024;2023-06-01T10:14:04;27.00;21.00
24636;DHT22;12772;49.794;10.024;2023-06-01T10:18:07;27.10;21.70
24636;DHT22;12772;49.794;10.024;2023-06-01T10:22:09;27.20;21.80
24636;DHT22;12772;49.794;10.024;2023-06-01T10:26:15;27.20;21.80
24636;DHT22;12772;49.794;10.024;2023-06-01T10:30:18;27.30;21.80
24636;DHT22;12772;49.794;10.024;2023-06-01T10:34:43;27.40;21.10
24636;DHT22;12772;49.794;10.024;2023-06-01T10:38:45;27.50;20.70
24636;DHT22;12772;49.794;10.024;2023-06-01T10:42:48;27.50;20.50
24636;DHT22;12772;49.794;10.024;2023-06-01T10:46:50;27.60;20.20
24636;DHT22;12772;49.794;10.024;2023-06-01T10:51:18;27.70;20.10
24636;DHT22;12772;49.794;10.024;2023-06-01T10:55:22;27.70;20.30
24636;DHT22;12772;49.794;10.024;2023-06-01T10:59:25;27.80;20.30
24636;DHT22;12772;49.794;10.024;2023-06-01T11:03:45;27.90;20.00
24636;DHT22;12772;49.794;10.024;2023-06-01T11:07:48;28.00;20.30
24636;DHT22;12772;49.794;10.024;2023-06-01T11:20:08;28.40;19.90
24636;DHT22;12772;49.794;10.024;2023-06-01T11:24:13;28.50;20.00
24636;DHT22;12772;49.794;10.024;2023-06-01T11:28:19;28.50;19.70
24636;DHT22;12772;49.794;10.024;2023-06-01T11:32:22;28.60;19.70
24636;DHT22;12772;49.794;10.024;2023-06-01T11:36:25;28.60;18.90
24636;DHT22;12772;49.794;10.024;2023-06-01T11:40:27;28.70;19.20
24636;DHT22;12772;49.794;10.024;2023-06-01T11:44:31;28.80;18.50
24636;DHT22;12772;49.794;10.024;2023-06-01T11:48:33;28.90;19.40
24636;DHT22;12772;49.794;10.024;2023-06-01T11:52:36;29.00;18.80
24636;DHT22;12772;49.794;10.024;2023-06-01T11:56:38;29.10;18.70
24636;DHT22;12772;49.794;10.024;2023-06-01T12:00:40;29.10;18.90
24636;DHT22;12772;49.794;10.024;2023-06-01T12:04:42;29.20;19.40
24636;DHT22;12772;49.794;10.024;2023-06-01T12:08:44;29.10;18.10
24636;DHT22;12772;49.794;10.024;2023-06-01T12:12:46;29.10;18.40
24636;DHT22;12772;49.794;10.024;2023-06-01T12:16:57;29.10;18.30
24636;DHT22;12772;49.794;10.024;2023-06-01T12:21:09;29.10;18.70
24636;DHT22;12772;49.794;10.024;2023-06-01T12:25:11;29.10;19.10
24636;DHT22;12772;49.794;10.024;2023-06-01T12:29:14;29.30;18.70
24636;DHT22;12772;49.794;10.024;2023-06-01T12:33:35;29.40;18.20
24636;DHT22;12772;49.794;10.024;2023-06-01T12:37:37;29.40;18.20
24636;DHT22;12772;49.794;10.024;2023-06-01T12:41:49;29.40;17.90
24636;DHT22;12772;49.794;10.024;2023-06-01T12:45:52;29.40;17.90
24636;DHT22;12772;49.794;10.024;2023-06-01T12:50:08;29.40;17.20
24636;DHT22;12772;49.794;10.024;2023-06-01T12:54:10;29.40;17.70
24636;DHT22;12772;49.794;10.024;2023-06-01T12:58:12;29.60;18.40
24636;DHT22;12772;49.794;10.024;2023-06-01T13:02:14;29.70;17.70
24636;DHT22;12772;49.794;10.024;2023-06-01T13:06:16;29.90;18.60
24636;DHT22;12772;49.794;10.024;2023-06-01T13:10:18;30.00;18.10
24636;DHT22;12772;49.794;10.024;2023-06-01T13:14:20;30.20;18.30
24636;DHT22;12772;49.794;10.024;2023-06-01T13:18:22;30.20;18.40
24636;DHT22;12772;49.794;10.024;2023-06-01T13:22:25;30.30;18.10
24636;DHT22;12772;49.794;10.024;2023-06-01T13:26:27;30.40;17.90
24636;DHT22;12772;49.794;10.024;2023-06-01T13:30:29;30.30;17.80
24636;DHT22;12772;49.794;10.024;2023-06-01T13:34:33;30.20;17.70
24636;DHT22;12772;49.794;10.024;2023-06-01T13:38:35;30.10;17.70
24636;DHT22;12772;49.794;10.024;2023-06-01T13:42:37;30.10;17.70
24636;DHT22;12772;49.794;10.024;2023-06-01T13:46:39;30.10;17.70
24636;DHT22;12772;49.794;10.024;2023-06-01T13:50:41;30.10;17.70
24636;DHT22;12772;49.794;10.024;2023-06-01T13:54:43;30.10;16.10
24636;DHT22;12772;49.794;10.024;2023-06-01T13:58:45;30.00;16.50
24636;DHT22;12772;49.794;10.024;2023-06-01T14:02:47;30.00;18.20
24636;DHT22;12772;49.794;10.024;2023-06-01T14:06:49;29.90;16.80
24636;DHT22;12772;49.794;10.024;2023-06-01T14:10:51;29.90;17.50
24636;DHT22;12772;49.794;10.024;2023-06-01T14:14:53;29.80;17.50
24636;DHT22;12772;49.794;10.024;2023-06-01T14:18:55;29.90;17.60
24636;DHT22;12772;49.794;10.024;2023-06-01T14:22:57;29.90;17.60
24636;DHT22;12772;49.794;10.024;2023-06-01T14:27:01;30.00;17.60
24636;DHT22;12772;49.794;10.024;2023-06-01T14:31:03;30.00;17.60
24636;DHT22;12772;49.794;10.024;2023-06-01T14:35:05;29.90;16.50
24636;DHT22;12772;49.794;10.024;2023-06-01T14:39:08;29.80;16.50
24636;DHT22;12772;49.794;10.024;2023-06-01T14:43:10;29.80;16.80
24636;DHT22;12772;49.794;10.024;2023-06-01T14:47:12;29.80;17.40
24636;DHT22;12772;49.794;10.024;2023-06-01T14:51:14;29.80;17.50
24636;DHT22;12772;49.794;10.024;2023-06-01T14:55:16;29.80;17.50
24636;DHT22;12772;49.794;10.024;2023-06-01T14:59:19;29.80;18.20
24636;DHT22;12772;49.794;10.024;2023-06-01T15:03:21;29.80;18.40
24636;DHT22;12772;49.794;10.024;2023-06-01T15:07:23;29.80;18.10
24636;DHT22;12772;49.794;10.024;2023-06-01T15:11:25;29.80;17.40
24636;DHT22;12772;49.794;10.024;2023-06-01T15:15:28;29.80;17.50
24636;DHT22;12772;49.794;10.024;2023-06-01T15:19:30;29.90;17.60
24636;DHT22;12772;49.794;10.024;2023-06-01T15:23:32;30.00;15.90
24636;DHT22;12772;49.794;10.024;2023-06-01T15:27:34;30.00;16.10
24636;DHT22;12772;49.794;10.024;2023-06-01T15:31:36;30.00;15.50
24636;DHT22;12772;49.794;10.024;2023-06-01T15:35:38;30.00;16.40
24636;DHT22;12772;49.794;10.024;2023-06-01T15:39:41;30.00;16.50
24636;DHT22;12772;49.794;10.024;2023-06-01T15:43:43;30.00;16.60
24636;DHT22;12772;49.794;10.024;2023-06-01T15:47:45;29.90;17.10
24636;DHT22;12772;49.794;10.024;2023-06-01T15:51:47;29.90;16.30
24636;DHT22;12772;49.794;10.024;2023-06-01T15:55:49;29.80;15.90
24636;DHT22;12772;49.794;10.024;2023-06-01T15:59:51;29.80;16.00
24636;DHT22;12772;49.794;10.024;2023-06-01T16:03:53;29.80;15.80
24636;DHT22;12772;49.794;10.024;2023-06-01T16:07:55;29.80;15.90
24636;DHT22;12772;49.794;10.024;2023-06-01T16:11:57;29.80;15.90
24636;DHT22;12772;49.794;10.024;2023-06-01T16:15:59;29.80;16.10
24636;DHT22;12772;49.794;10.024;2023-06-01T16:20:02;29.60;16.40
24636;DHT22;12772;49.794;10.024;2023-06-01T16:24:04;29.60;17.30
24636;DHT22;12772;49.794;10.024;2023-06-01T16:28:06;29.60;17.40
24636;DHT22;12772;49.794;10.024;2023-06-01T16:32:08;29.60;17.30
24636;DHT22;12772;49.794;10.024;2023-06-01T16:36:10;29.50;17.30
24636;DHT22;12772;49.794;10.024;2023-06-01T16:40:12;29.50;17.60
24636;DHT22;12772;49.794;10.024;2023-06-01T16:44:14;29.40;17.60
24636;DHT22;12772;49.794;10.024;2023-06-01T16:48:16;29.30;18.20
24636;DHT22;12772;49.794;10.024;2023-06-01T16:52:18;29.20;17.50
24636;DHT22;12772;49.794;10.024;2023-06-01T16:56:20;29.10;18.10
24636;DHT22;12772;49.794;10.024;2023-06-01T17:00:23;29.00;18.50
24636;DHT22;12772;49.794;10.024;2023-06-01T17:04:26;28.90;18.60
24636;DHT22;12772;49.794;10.024;2023-06-01T17:08:28;28.80;18.40
24636;DHT22;12772;49.794;10.024;2023-06-01T17:12:31;28.50;18.10
24636;DHT22;12772;49.794;10.024;2023-06-01T17:16:33;28.40;18.00
24636;DHT22;12772;49.794;10.024;2023-06-01T17:20:35;28.20;17.80
24636;DHT22;12772;49.794;10.024;2023-06-01T17:24:37;28.00;17.60
24636;DHT22;12772;49.794;10.024;2023-06-01T17:28:39;27.80;16.50
24636;DHT22;12772;49.794;10.024;2023-06-01T17:32:41;27.60;16.30
24636;DHT22;12772;49.794;10.024;2023-06-01T17:36:43;27.40;16.70
24636;DHT22;12772;49.794;10.024;2023-06-01T17:40:45;27.30;16.50
24636;DHT22;12772;49.794;10.024;2023-06-01T17:44:47;27.10;16.30
24636;DHT22;12772;49.794;10.024;2023-06-01T17:48:49;27.00;16.30
24636;DHT22;12772;49.794;10.024;2023-06-01T17:52:52;26.80;16.70
24636;DHT22;12772;49.794;10.024;2023-06-01T17:56:54;26.80;16.70
24636;DHT22;12772;49.794;10.024;2023-06-01T18:00:55;26.70;17.20
24636;DHT22;12772;49.794;10.024;2023-06-01T18:04:57;26.70;17.10
24636;DHT22;12772;49.794;10.024;2023-06-01T18:08:59;26.60;17.00
24636;DHT22;12772;49.794;10.024;2023-06-01T18:13:01;26.60;17.10
24636;DHT22;12772;49.794;10.024;2023-06-01T18:17:04;26.50;16.90
24636;DHT22;12772;49.794;10.024;2023-06-01T18:21:06;26.40;17.20
24636;DHT22;12772;49.794;10.024;2023-06-01T18:25:08;26.40;17.30
24636;DHT22;12772;49.794;10.024;2023-06-01T18:29:10;26.30;17.40
24636;DHT22;12772;49.794;10.024;2023-06-01T18:33:12;26.40;17.40
24636;DHT22;12772;49.794;10.024;2023-06-01T18:37:14;26.30;17.50
24636;DHT22;12772;49.794;10.024;2023-06-01T18:41:16;26.20;17.70
24636;DHT22;12772;49.794;10.024;2023-06-01T18:45:18;26.20;17.80
24636;DHT22;12772;49.794;10.024;2023-06-01T18:49:20;26.00;18.10
24636;DHT22;12772;49.794;10.024;2023-06-01T18:53:22;25.90;18.10
24636;DHT22;12772;49.794;10.024;2023-06-01T18:57:25;25.80;18.60
24636;DHT22;12772;49.794;10.024;2023-06-01T19:01:28;25.70;18.80
24636;DHT22;12772;49.794;10.024;2023-06-01T19:05:32;25.50;18.90
24636;DHT22;12772;49.794;10.024;2023-06-01T19:09:38;25.50;19.10
24636;DHT22;12772;49.794;10.024;2023-06-01T19:13:45;25.40;19.10
24636;DHT22;12772;49.794;10.024;2023-06-01T19:17:50;25.30;19.10
24636;DHT22;12772;49.794;10.024;2023-06-01T19:21:52;25.10;19.50
24636;DHT22;12772;49.794;10.024;2023-06-01T19:25:55;25.10;19.70
24636;DHT22;12772;49.794;10.024;2023-06-01T19:29:57;25.00;20.30
24636;DHT22;12772;49.794;10.024;2023-06-01T19:34:01;24.90;20.20
24636;DHT22;12772;49.794;10.024;2023-06-01T19:38:04;24.80;20.10
24636;DHT22;12772;49.794;10.024;2023-06-01T19:46:21;24.60;20.00
24636;DHT22;12772;49.794;10.024;2023-06-01T19:50:38;24.60;20.70
24636;DHT22;12772;49.794;10.024;2023-06-01T19:54:41;24.50;20.80
24636;DHT22;12772;49.794;10.024;2023-06-01T19:58:44;24.40;21.10
24636;DHT22;12772;49.794;10.024;2023-06-01T20:02:51;24.20;21.40
24636;DHT22;12772;49.794;10.024;2023-06-01T20:06:54;24.10;21.30
24636;DHT22;12772;49.794;10.024;2023-06-01T20:10:57;24.10;21.50
24636;DHT22;12772;49.794;10.024;2023-06-01T20:14:59;24.00;21.50
24636;DHT22;12772;49.794;10.024;2023-06-01T20:19:01;23.80;21.70
24636;DHT22;12772;49.794;10.024;2023-06-01T20:23:04;23.70;21.70
24636;DHT22;12772;49.794;10.024;2023-06-01T20:27:07;23.60;21.80
24636;DHT22;12772;49.794;10.024;2023-06-01T20:31:09;23.60;21.90
24636;DHT22;12772;49.794;10.024;2023-06-01T20:35:11;23.50;22.00
24636;DHT22;12772;49.794;10.024;2023-06-01T20:39:13;23.40;22.10
24636;DHT22;12772;49.794;10.024;2023-06-01T20:43:23;23.30;21.80
24636;DHT22;12772;49.794;10.024;2023-06-01T20:47:26;23.30;21.80
24636;DHT22;12772;49.794;10.024;2023-06-01T20:51:30;23.10;21.90
24636;DHT22;12772;49.794;10.024;2023-06-01T20:55:38;22.90;22.00
24636;DHT22;12772;49.794;10.024;2023-06-01T20:59:41;22.80;22.10
24636;DHT22;12772;49.794;10.024;2023-06-01T21:03:43;22.70;22.00
24636;DHT22;12772;49.794;10.024;2023-06-01T21:07:46;22.60;22.10
24636;DHT22;12772;49.794;10.024;2023-06-01T21:11:50;22.60;22.30
24636;DHT22;12772;49.794;10.024;2023-06-01T21:15:52;22.50;22.80
24636;DHT22;12772;49.794;10.024;2023-06-01T21:19:54;22.50;23.10
24636;DHT22;12772;49.794;10.024;2023-06-01T21:23:56;22.40;23.30
24636;DHT22;12772;49.794;10.024;2023-06-01T21:27:58;22.40;23.10
24636;DHT22;12772;49.794;10.024;2023-06-01T21:32:00;22.30;23.00
24636;DHT22;12772;49.794;10.024;2023-06-01T21:36:03;22.20;23.20
24636;DHT22;12772;49.794;10.024;2023-06-01T21:40:06;22.10;23.40
24636;DHT22;12772;49.794;10.024;2023-06-01T21:44:08;22.00;23.90
24636;DHT22;12772;49.794;10.024;2023-06-01T21:48:10;21.90;24.10
24636;DHT22;12772;49.794;10.024;2023-06-01T21:52:12;21.80;23.40
24636;DHT22;12772;49.794;10.024;2023-06-01T21:56:14;21.70;23.70
24636;DHT22;12772;49.794;10.024;2023-06-01T22:00:16;21.60;24.10
24636;DHT22;12772;49.794;10.024;2023-06-01T22:04:19;21.50;24.10
24636;DHT22;12772;49.794;10.024;2023-06-01T22:08:21;21.40;24.40
24636;DHT22;12772;49.794;10.024;2023-06-01T22:12:23;21.30;24.60
24636;DHT22;12772;49.794;10.024;2023-06-01T22:16:25;21.20;24.90
24636;DHT22;12772;49.794;10.024;2023-06-01T22:20:27;21.20;25.30
24636;DHT22;12772;49.794;10.024;2023-06-01T22:24:29;21.10;25.60
24636;DHT22;12772;49.794;10.024;2023-06-01T22:28:32;21.00;25.80
24636;DHT22;12772;49.794;10.024;2023-06-01T22:32:34;20.90;26.20
24636;DHT22;12772;49.794;10.024;2023-06-01T22:36:36;20.80;26.50
24636;DHT22;12772;49.794;10.024;2023-06-01T22:40:39;20.70;27.00
24636;DHT22;12772;49.794;10.024;2023-06-01T22:44:41;20.60;27.80
24636;DHT22;12772;49.794;10.024;2023-06-01T22:48:43;20.60;28.10
24636;DHT22;12772;49.794;10.024;2023-06-01T22:52:50;20.50;28.10
24636;DHT22;12772;49.794;10.024;2023-06-01T22:56:53;20.40;28.20
24636;DHT22;12772;49.794;10.024;2023-06-01T23:00:55;20.30;29.00
24636;DHT22;12772;49.794;10.024;2023-06-01T23:04:57;20.20;29.70
24636;DHT22;12772;49.794;10.024;2023-06-01T23:09:00;20.10;31.00
24636;DHT22;12772;49.794;10.024;2023-06-01T23:13:05;20.00;32.10
24636;DHT22;12772;49.794;10.024;2023-06-01T23:17:10;19.90;33.90
24636;DHT22;12772;49.794;10.024;2023-06-01T23:21:13;19.70;33.90
24636;DHT22;12772;49.794;10.024;2023-06-01T23:25:15;19.70;34.80
24636;DHT22;12772;49.794;10.024;2023-06-01T23:29:18;19.60;35.30
24636;DHT22;12772;49.794;10.024;2023-06-01T23:33:20;19.50;35.40
24636;DHT22;12772;49.794;10.024;2023-06-01T23:37:23;19.50;36.30
24636;DHT22;12772;49.794;10.024;2023-06-01T23:41:28;19.40;36.60
24636;DHT22;12772;49.794;10.024;2023-06-01T23:45:30;19.30;37.10
24636;DHT22;12772;49.794;10.024;2023-06-01T23:49:33;19.20;37.50
24636;DHT22;12772;49.794;10.024;2023-06-01T23:53:37;19.10;38.20
24636;DHT22;12772;49.794;10.024;2023-06-01T23:57:39;18.90;38.20
